Hickory Regional Airport
KHKY : now visible

Aeroporto :











RITROVATECI SU...

 
LOGIN :

Iscrizione | Disclaimer

   EN    FR    IT 

 









Sommario :    VFR   VFR Marginale   IFR   IFR Intensivo   IFR Molto Intensivo
Visibilità : 
Base nubi : 
>= 8 km
>= 3000ft
5 / 8 km
1000 / 3000 ft
1500m / 5 km
500 / 1000 ft
800 / 1500m
200 / 500 ft
< 800m
< 200 ft
Simboli :   Temporali  Nebbia  Neve Forte  Precipitazioni Forti  Vento > 20 kt






- Altitudine del aeroporto : 1190 ft
- Codice IATA : HKY


KHKY - Hickory Regional

ULTIMO METAR :
  • 081253Z 19003KT 10SM CLR 18/13 A2980 RMK AO2 SLP071 T01830133

METARs OBSOLETI :
  • 081153Z 17004KT 10SM CLR 15/12 A2979 RMK AO2 SLP068 70001 T01500122 10178 20133 53009
  • 081053Z 15003KT 10SM CLR 14/12 A2977 RMK AO2 SLP061 T01390117
  • 080953Z AUTO 00000KT 10SM CLR 14/12 A2976 RMK AO2 SLP058 T01390117

TAF KHKY
Valido dal 08 a 12 ore il 09 a 12 ore UTC


081131Z 0812/0912 24004KT P6SM FEW250
FM081400 26006KT P6SM SCT120
FM081900 27009G17KT P6SM VCTS SCT050CB
FM090200 29006KT P6SM SCT060
PROB30 0909/0912 4SM TSRA BR BKN030CB



MetMap, La meteo Aeronautica in un colpo d'occhio ! - Copyright ORBIFLY Dicembre 2007 - Disclaimer

ORBIFLY MET'MAP TEAM :

Programmazione e sviluppo : Alexandra Zaïnal
Concezione : Baudouin d'Aumeries
Aiuto per la programmazione : Marc-Olivier Méhu
Supporto tecnico e logistico : Manuel Goepfert
Aiuto per la traduzione : Arnaldo La Scala

Contatto : metmap@orbifly.com




FONTI E CREDITI :

   NOAA       Earth
Advisory